sensor_id;sensor_type;location;lat;lon;timestamp;P1;durP1;ratioP1;P2;durP2;ratioP2
72761;SDS011;60886;55.034;73.150;2023-07-09T00:01:05;10.02;;;3.83;;
72761;SDS011;60886;55.034;73.150;2023-07-09T00:04:10;11.85;;;3.70;;
72761;SDS011;60886;55.034;73.150;2023-07-09T00:07:21;9.57;;;3.97;;
72761;SDS011;60886;55.034;73.150;2023-07-09T00:10:34;7.20;;;3.36;;
72761;SDS011;60886;55.034;73.150;2023-07-09T00:13:36;9.73;;;3.90;;
72761;SDS011;60886;55.034;73.150;2023-07-09T00:16:38;9.18;;;3.78;;
72761;SDS011;60886;55.034;73.150;2023-07-09T00:19:40;9.93;;;3.87;;
72761;SDS011;60886;55.034;73.150;2023-07-09T00:22:45;10.40;;;4.05;;
72761;SDS011;60886;55.034;73.150;2023-07-09T00:25:53;7.70;;;3.70;;
72761;SDS011;60886;55.034;73.150;2023-07-09T00:28:54;9.50;;;4.00;;
72761;SDS011;60886;55.034;73.150;2023-07-09T00:31:55;9.10;;;3.87;;
72761;SDS011;60886;55.034;73.150;2023-07-09T00:34:57;10.90;;;3.80;;
72761;SDS011;60886;55.034;73.150;2023-07-09T00:37:58;8.05;;;3.50;;
72761;SDS011;60886;55.034;73.150;2023-07-09T00:50:58;8.13;;;3.83;;
72761;SDS011;60886;55.034;73.150;2023-07-09T00:54:01;8.82;;;3.60;;
72761;SDS011;60886;55.034;73.150;2023-07-09T00:57:12;9.10;;;3.65;;
72761;SDS011;60886;55.034;73.150;2023-07-09T01:00:18;8.18;;;3.30;;
72761;SDS011;60886;55.034;73.150;2023-07-09T01:03:37;8.90;;;3.40;;
72761;SDS011;60886;55.034;73.150;2023-07-09T01:06:52;8.43;;;3.50;;
72761;SDS011;60886;55.034;73.150;2023-07-09T01:09:57;9.00;;;3.60;;
72761;SDS011;60886;55.034;73.150;2023-07-09T01:12:59;7.30;;;3.13;;
72761;SDS011;60886;55.034;73.150;2023-07-09T01:16:00;8.35;;;3.03;;
72761;SDS011;60886;55.034;73.150;2023-07-09T01:19:03;8.63;;;2.78;;
72761;SDS011;60886;55.034;73.150;2023-07-09T01:22:08;8.87;;;2.90;;
72761;SDS011;60886;55.034;73.150;2023-07-09T01:25:12;10.55;;;2.70;;
72761;SDS011;60886;55.034;73.150;2023-07-09T01:28:14;8.17;;;3.07;;
72761;SDS011;60886;55.034;73.150;2023-07-09T01:31:18;8.77;;;2.90;;
72761;SDS011;60886;55.034;73.150;2023-07-09T01:34:21;7.60;;;2.83;;
72761;SDS011;60886;55.034;73.150;2023-07-09T01:37:24;7.38;;;2.88;;
72761;SDS011;60886;55.034;73.150;2023-07-09T01:40:35;8.33;;;2.60;;
72761;SDS011;60886;55.034;73.150;2023-07-09T01:43:37;7.10;;;2.70;;
72761;SDS011;60886;55.034;73.150;2023-07-09T01:46:38;9.80;;;2.92;;
72761;SDS011;60886;55.034;73.150;2023-07-09T01:49:39;6.35;;;2.70;;
72761;SDS011;60886;55.034;73.150;2023-07-09T01:52:41;6.90;;;2.43;;
72761;SDS011;60886;55.034;73.150;2023-07-09T01:55:44;8.95;;;2.92;;
72761;SDS011;60886;55.034;73.150;2023-07-09T01:58:46;13.00;;;3.30;;
72761;SDS011;60886;55.034;73.150;2023-07-09T02:01:48;9.43;;;4.00;;
72761;SDS011;60886;55.034;73.150;2023-07-09T02:04:54;7.18;;;2.40;;
72761;SDS011;60886;55.034;73.150;2023-07-09T02:07:57;8.47;;;2.47;;
72761;SDS011;60886;55.034;73.150;2023-07-09T02:11:00;6.67;;;2.50;;
72761;SDS011;60886;55.034;73.150;2023-07-09T02:14:01;8.30;;;2.50;;
72761;SDS011;60886;55.034;73.150;2023-07-09T02:17:03;6.07;;;2.43;;
72761;SDS011;60886;55.034;73.150;2023-07-09T02:20:04;8.13;;;2.45;;
72761;SDS011;60886;55.034;73.150;2023-07-09T02:23:09;8.03;;;2.40;;
72761;SDS011;60886;55.034;73.150;2023-07-09T02:26:11;8.85;;;2.55;;
72761;SDS011;60886;55.034;73.150;2023-07-09T02:29:12;7.65;;;2.40;;
72761;SDS011;60886;55.034;73.150;2023-07-09T02:32:17;8.27;;;2.60;;
72761;SDS011;60886;55.034;73.150;2023-07-09T02:35:22;6.80;;;2.70;;
72761;SDS011;60886;55.034;73.150;2023-07-09T02:38:23;6.65;;;2.70;;
72761;SDS011;60886;55.034;73.150;2023-07-09T02:41:24;6.00;;;2.60;;
72761;SDS011;60886;55.034;73.150;2023-07-09T02:44:26;6.97;;;2.30;;
72761;SDS011;60886;55.034;73.150;2023-07-09T02:47:27;6.93;;;2.47;;
72761;SDS011;60886;55.034;73.150;2023-07-09T02:50:34;6.03;;;2.30;;
72761;SDS011;60886;55.034;73.150;2023-07-09T02:53:36;9.63;;;2.80;;
72761;SDS011;60886;55.034;73.150;2023-07-09T02:56:38;6.43;;;2.23;;
72761;SDS011;60886;55.034;73.150;2023-07-09T02:59:39;6.10;;;2.25;;
72761;SDS011;60886;55.034;73.150;2023-07-09T03:02:40;6.43;;;2.30;;
72761;SDS011;60886;55.034;73.150;2023-07-09T03:05:42;6.47;;;2.30;;
72761;SDS011;60886;55.034;73.150;2023-07-09T03:08:53;5.60;;;2.15;;
72761;SDS011;60886;55.034;73.150;2023-07-09T03:11:55;7.50;;;2.80;;
72761;SDS011;60886;55.034;73.150;2023-07-09T03:14:56;6.55;;;2.40;;
72761;SDS011;60886;55.034;73.150;2023-07-09T03:17:58;6.13;;;2.20;;
72761;SDS011;60886;55.034;73.150;2023-07-09T03:20:59;8.10;;;2.83;;
72761;SDS011;60886;55.034;73.150;2023-07-09T03:24:00;7.28;;;2.50;;
72761;SDS011;60886;55.034;73.150;2023-07-09T03:27:02;7.68;;;2.20;;
72761;SDS011;60886;55.034;73.150;2023-07-09T03:30:04;6.47;;;1.73;;
72761;SDS011;60886;55.034;73.150;2023-07-09T03:33:07;5.43;;;1.67;;
72761;SDS011;60886;55.034;73.150;2023-07-09T03:36:09;6.83;;;2.00;;
72761;SDS011;60886;55.034;73.150;2023-07-09T03:39:11;5.72;;;1.80;;
72761;SDS011;60886;55.034;73.150;2023-07-09T03:42:13;4.80;;;1.70;;
72761;SDS011;60886;55.034;73.150;2023-07-09T03:45:14;6.30;;;2.00;;
72761;SDS011;60886;55.034;73.150;2023-07-09T03:48:16;5.77;;;1.80;;
72761;SDS011;60886;55.034;73.150;2023-07-09T03:51:20;8.88;;;2.17;;
72761;SDS011;60886;55.034;73.150;2023-07-09T03:54:22;8.00;;;2.15;;
72761;SDS011;60886;55.034;73.150;2023-07-09T03:57:23;7.43;;;2.13;;
72761;SDS011;60886;55.034;73.150;2023-07-09T04:00:34;5.76;;;1.80;;
72761;SDS011;60886;55.034;73.150;2023-07-09T04:03:36;5.25;;;1.90;;
72761;SDS011;60886;55.034;73.150;2023-07-09T04:06:38;7.70;;;2.00;;
72761;SDS011;60886;55.034;73.150;2023-07-09T04:09:40;6.78;;;2.00;;
72761;SDS011;60886;55.034;73.150;2023-07-09T04:12:42;6.57;;;2.03;;
72761;SDS011;60886;55.034;73.150;2023-07-09T04:15:43;6.00;;;1.80;;
72761;SDS011;60886;55.034;73.150;2023-07-09T04:18:45;6.82;;;1.95;;
72761;SDS011;60886;55.034;73.150;2023-07-09T04:21:46;7.07;;;1.90;;
72761;SDS011;60886;55.034;73.150;2023-07-09T04:24:48;5.63;;;2.03;;
72761;SDS011;60886;55.034;73.150;2023-07-09T04:27:50;7.20;;;2.00;;
72761;SDS011;60886;55.034;73.150;2023-07-09T04:30:51;5.60;;;2.00;;
72761;SDS011;60886;55.034;73.150;2023-07-09T04:33:53;6.53;;;1.80;;
72761;SDS011;60886;55.034;73.150;2023-07-09T04:36:57;5.25;;;1.80;;
72761;SDS011;60886;55.034;73.150;2023-07-09T04:39:59;6.50;;;2.00;;
72761;SDS011;60886;55.034;73.150;2023-07-09T04:43:00;6.20;;;1.88;;
72761;SDS011;60886;55.034;73.150;2023-07-09T04:46:02;5.13;;;1.90;;
72761;SDS011;60886;55.034;73.150;2023-07-09T04:49:04;8.48;;;2.10;;
72761;SDS011;60886;55.034;73.150;2023-07-09T04:52:05;5.37;;;1.67;;
72761;SDS011;60886;55.034;73.150;2023-07-09T04:55:07;7.05;;;1.85;;
72761;SDS011;60886;55.034;73.150;2023-07-09T04:58:09;6.83;;;1.60;;
72761;SDS011;60886;55.034;73.150;2023-07-09T05:01:11;8.20;;;1.90;;
72761;SDS011;60886;55.034;73.150;2023-07-09T05:04:12;7.78;;;1.92;;
72761;SDS011;60886;55.034;73.150;2023-07-09T05:07:14;5.90;;;1.80;;
72761;SDS011;60886;55.034;73.150;2023-07-09T05:10:15;5.35;;;1.80;;
72761;SDS011;60886;55.034;73.150;2023-07-09T05:13:17;27.30;;;18.77;;
72761;SDS011;60886;55.034;73.150;2023-07-09T05:16:18;5.72;;;2.22;;
72761;SDS011;60886;55.034;73.150;2023-07-09T05:19:20;6.90;;;2.08;;
72761;SDS011;60886;55.034;73.150;2023-07-09T05:22:21;5.90;;;2.10;;
72761;SDS011;60886;55.034;73.150;2023-07-09T05:25:23;5.43;;;1.80;;
72761;SDS011;60886;55.034;73.150;2023-07-09T05:28:24;6.70;;;1.93;;
72761;SDS011;60886;55.034;73.150;2023-07-09T05:31:26;6.00;;;2.13;;
72761;SDS011;60886;55.034;73.150;2023-07-09T05:34:28;5.50;;;2.08;;
72761;SDS011;60886;55.034;73.150;2023-07-09T05:37:30;6.57;;;2.30;;
72761;SDS011;60886;55.034;73.150;2023-07-09T05:40:34;5.97;;;1.83;;
72761;SDS011;60886;55.034;73.150;2023-07-09T05:43:36;5.82;;;1.80;;
72761;SDS011;60886;55.034;73.150;2023-07-09T05:46:38;6.50;;;2.00;;
72761;SDS011;60886;55.034;73.150;2023-07-09T05:49:39;6.70;;;2.05;;
72761;SDS011;60886;55.034;73.150;2023-07-09T05:52:41;5.53;;;1.90;;
72761;SDS011;60886;55.034;73.150;2023-07-09T05:55:42;5.32;;;2.00;;
72761;SDS011;60886;55.034;73.150;2023-07-09T05:58:44;6.72;;;2.42;;
72761;SDS011;60886;55.034;73.150;2023-07-09T06:01:45;5.77;;;1.97;;
72761;SDS011;60886;55.034;73.150;2023-07-09T06:04:47;6.57;;;2.20;;
72761;SDS011;60886;55.034;73.150;2023-07-09T06:07:52;5.80;;;1.90;;
72761;SDS011;60886;55.034;73.150;2023-07-09T06:11:02;5.97;;;1.90;;
72761;SDS011;60886;55.034;73.150;2023-07-09T06:14:05;8.10;;;2.10;;
72761;SDS011;60886;55.034;73.150;2023-07-09T06:17:06;5.68;;;1.70;;
72761;SDS011;60886;55.034;73.150;2023-07-09T06:20:08;7.85;;;2.00;;
72761;SDS011;60886;55.034;73.150;2023-07-09T06:23:10;7.77;;;2.20;;
72761;SDS011;60886;55.034;73.150;2023-07-09T06:26:11;5.32;;;2.05;;
72761;SDS011;60886;55.034;73.150;2023-07-09T06:29:13;6.93;;;1.80;;
72761;SDS011;60886;55.034;73.150;2023-07-09T06:32:14;6.25;;;2.10;;
72761;SDS011;60886;55.034;73.150;2023-07-09T06:35:16;6.45;;;2.05;;
72761;SDS011;60886;55.034;73.150;2023-07-09T06:38:17;6.20;;;2.10;;
72761;SDS011;60886;55.034;73.150;2023-07-09T06:41:19;6.82;;;2.10;;
72761;SDS011;60886;55.034;73.150;2023-07-09T06:44:21;6.82;;;2.40;;
72761;SDS011;60886;55.034;73.150;2023-07-09T06:47:23;6.13;;;2.03;;
72761;SDS011;60886;55.034;73.150;2023-07-09T06:50:24;6.00;;;2.00;;
72761;SDS011;60886;55.034;73.150;2023-07-09T06:53:26;5.55;;;2.03;;
72761;SDS011;60886;55.034;73.150;2023-07-09T06:56:29;7.30;;;2.10;;
72761;SDS011;60886;55.034;73.150;2023-07-09T06:59:30;8.82;;;2.20;;
72761;SDS011;60886;55.034;73.150;2023-07-09T07:02:31;7.57;;;2.22;;
72761;SDS011;60886;55.034;73.150;2023-07-09T07:05:34;5.13;;;2.00;;
72761;SDS011;60886;55.034;73.150;2023-07-09T07:08:36;5.88;;;2.03;;
72761;SDS011;60886;55.034;73.150;2023-07-09T07:11:37;7.73;;;2.20;;
72761;SDS011;60886;55.034;73.150;2023-07-09T07:14:39;7.57;;;2.20;;
72761;SDS011;60886;55.034;73.150;2023-07-09T07:17:40;6.22;;;2.00;;
72761;SDS011;60886;55.034;73.150;2023-07-09T07:21:02;6.28;;;2.30;;
72761;SDS011;60886;55.034;73.150;2023-07-09T07:24:34;6.72;;;2.10;;
72761;SDS011;60886;55.034;73.150;2023-07-09T07:27:36;5.80;;;1.80;;
72761;SDS011;60886;55.034;73.150;2023-07-09T07:30:38;6.68;;;1.95;;
72761;SDS011;60886;55.034;73.150;2023-07-09T07:33:40;5.30;;;2.00;;
72761;SDS011;60886;55.034;73.150;2023-07-09T07:36:44;6.72;;;2.20;;
72761;SDS011;60886;55.034;73.150;2023-07-09T07:39:48;6.03;;;2.28;;
72761;SDS011;60886;55.034;73.150;2023-07-09T07:42:50;5.93;;;2.20;;
72761;SDS011;60886;55.034;73.150;2023-07-09T07:45:52;5.90;;;1.83;;
72761;SDS011;60886;55.034;73.150;2023-07-09T07:48:53;5.90;;;2.28;;
72761;SDS011;60886;55.034;73.150;2023-07-09T07:51:54;5.67;;;2.00;;
72761;SDS011;60886;55.034;73.150;2023-07-09T07:54:56;7.03;;;2.25;;
72761;SDS011;60886;55.034;73.150;2023-07-09T07:57:58;6.10;;;2.20;;
72761;SDS011;60886;55.034;73.150;2023-07-09T08:01:00;6.72;;;2.20;;
72761;SDS011;60886;55.034;73.150;2023-07-09T08:04:02;5.57;;;2.20;;
72761;SDS011;60886;55.034;73.150;2023-07-09T08:07:04;6.30;;;2.20;;
72761;SDS011;60886;55.034;73.150;2023-07-09T08:10:05;5.75;;;2.22;;
72761;SDS011;60886;55.034;73.150;2023-07-09T08:13:07;6.93;;;2.75;;
72761;SDS011;60886;55.034;73.150;2023-07-09T08:16:09;5.67;;;2.10;;
72761;SDS011;60886;55.034;73.150;2023-07-09T08:19:12;5.95;;;2.20;;
72761;SDS011;60886;55.034;73.150;2023-07-09T08:22:14;7.07;;;2.30;;
72761;SDS011;60886;55.034;73.150;2023-07-09T08:25:16;6.50;;;2.20;;
72761;SDS011;60886;55.034;73.150;2023-07-09T08:28:17;6.17;;;1.97;;
72761;SDS011;60886;55.034;73.150;2023-07-09T08:31:20;6.03;;;2.33;;
72761;SDS011;60886;55.034;73.150;2023-07-09T08:34:21;5.97;;;2.20;;
72761;SDS011;60886;55.034;73.150;2023-07-09T08:37:23;5.57;;;2.10;;
72761;SDS011;60886;55.034;73.150;2023-07-09T08:40:24;6.18;;;2.10;;
72761;SDS011;60886;55.034;73.150;2023-07-09T08:52:45;8.90;;;2.50;;
72761;SDS011;60886;55.034;73.150;2023-07-09T08:55:49;7.32;;;2.45;;
72761;SDS011;60886;55.034;73.150;2023-07-09T08:58:53;7.15;;;2.65;;
72761;SDS011;60886;55.034;73.150;2023-07-09T09:01:56;7.38;;;2.40;;
72761;SDS011;60886;55.034;73.150;2023-07-09T09:05:02;7.17;;;2.70;;
72761;SDS011;60886;55.034;73.150;2023-07-09T09:08:11;6.38;;;2.30;;
72761;SDS011;60886;55.034;73.150;2023-07-09T09:14:37;7.22;;;2.22;;
72761;SDS011;60886;55.034;73.150;2023-07-09T09:17:42;5.93;;;2.20;;
72761;SDS011;60886;55.034;73.150;2023-07-09T09:20:46;6.80;;;2.53;;
72761;SDS011;60886;55.034;73.150;2023-07-09T09:23:54;5.93;;;2.15;;
72761;SDS011;60886;55.034;73.150;2023-07-09T09:27:00;5.23;;;2.10;;
72761;SDS011;60886;55.034;73.150;2023-07-09T09:30:01;6.20;;;2.00;;
72761;SDS011;60886;55.034;73.150;2023-07-09T09:33:06;6.40;;;2.30;;
72761;SDS011;60886;55.034;73.150;2023-07-09T09:36:16;5.60;;;2.20;;
72761;SDS011;60886;55.034;73.150;2023-07-09T09:39:20;6.27;;;2.37;;
72761;SDS011;60886;55.034;73.150;2023-07-09T09:42:24;7.60;;;2.45;;
72761;SDS011;60886;55.034;73.150;2023-07-09T09:45:35;6.53;;;2.50;;
72761;SDS011;60886;55.034;73.150;2023-07-09T09:48:39;6.25;;;2.42;;
72761;SDS011;60886;55.034;73.150;2023-07-09T09:51:42;7.22;;;2.50;;
72761;SDS011;60886;55.034;73.150;2023-07-09T09:54:53;7.27;;;2.57;;
72761;SDS011;60886;55.034;73.150;2023-07-09T09:57:57;6.13;;;2.50;;
72761;SDS011;60886;55.034;73.150;2023-07-09T10:00:59;5.75;;;2.40;;
72761;SDS011;60886;55.034;73.150;2023-07-09T10:04:01;6.60;;;2.40;;
72761;SDS011;60886;55.034;73.150;2023-07-09T10:07:05;6.53;;;2.57;;
72761;SDS011;60886;55.034;73.150;2023-07-09T10:10:12;5.70;;;2.30;;
72761;SDS011;60886;55.034;73.150;2023-07-09T10:13:30;5.90;;;2.47;;
72761;SDS011;60886;55.034;73.150;2023-07-09T10:16:38;5.60;;;2.30;;
72761;SDS011;60886;55.034;73.150;2023-07-09T10:19:51;5.97;;;2.55;;
72761;SDS011;60886;55.034;73.150;2023-07-09T10:23:28;6.13;;;2.65;;
72761;SDS011;60886;55.034;73.150;2023-07-09T10:30:24;8.30;;;2.20;;
72761;SDS011;60886;55.034;73.150;2023-07-09T10:40:49;6.85;;;2.95;;
72761;SDS011;60886;55.034;73.150;2023-07-09T10:43:57;5.70;;;2.47;;
72761;SDS011;60886;55.034;73.150;2023-07-09T10:47:09;5.90;;;2.40;;
72761;SDS011;60886;55.034;73.150;2023-07-09T10:50:39;6.18;;;2.58;;
72761;SDS011;60886;55.034;73.150;2023-07-09T10:56:47;6.70;;;2.63;;
72761;SDS011;60886;55.034;73.150;2023-07-09T10:59:54;7.28;;;2.70;;
72761;SDS011;60886;55.034;73.150;2023-07-09T11:03:00;6.97;;;2.83;;
72761;SDS011;60886;55.034;73.150;2023-07-09T11:06:13;7.40;;;2.70;;
72761;SDS011;60886;55.034;73.150;2023-07-09T11:09:32;9.73;;;3.80;;
72761;SDS011;60886;55.034;73.150;2023-07-09T11:12:37;6.20;;;2.70;;
72761;SDS011;60886;55.034;73.150;2023-07-09T11:15:44;7.60;;;2.97;;
72761;SDS011;60886;55.034;73.150;2023-07-09T11:18:55;8.40;;;3.03;;
72761;SDS011;60886;55.034;73.150;2023-07-09T11:22:05;6.10;;;2.77;;
72761;SDS011;60886;55.034;73.150;2023-07-09T11:25:15;6.93;;;2.70;;
72761;SDS011;60886;55.034;73.150;2023-07-09T11:28:35;9.15;;;3.30;;
72761;SDS011;60886;55.034;73.150;2023-07-09T11:31:39;7.65;;;3.50;;
72761;SDS011;60886;55.034;73.150;2023-07-09T11:34:45;7.85;;;3.25;;
72761;SDS011;60886;55.034;73.150;2023-07-09T11:37:48;7.03;;;3.00;;
72761;SDS011;60886;55.034;73.150;2023-07-09T11:40:54;7.90;;;3.20;;
72761;SDS011;60886;55.034;73.150;2023-07-09T11:44:30;6.93;;;3.13;;
72761;SDS011;60886;55.034;73.150;2023-07-09T11:47:37;7.30;;;3.00;;
72761;SDS011;60886;55.034;73.150;2023-07-09T11:50:45;7.10;;;3.23;;
72761;SDS011;60886;55.034;73.150;2023-07-09T11:53:51;7.70;;;3.27;;
72761;SDS011;60886;55.034;73.150;2023-07-09T11:56:57;7.18;;;3.20;;
72761;SDS011;60886;55.034;73.150;2023-07-09T11:59:59;7.95;;;3.63;;
72761;SDS011;60886;55.034;73.150;2023-07-09T12:03:01;8.90;;;4.05;;
72761;SDS011;60886;55.034;73.150;2023-07-09T12:06:04;10.97;;;4.10;;
72761;SDS011;60886;55.034;73.150;2023-07-09T12:09:15;9.90;;;4.60;;
72761;SDS011;60886;55.034;73.150;2023-07-09T12:12:22;8.97;;;4.03;;
72761;SDS011;60886;55.034;73.150;2023-07-09T12:15:34;9.16;;;4.13;;
72761;SDS011;60886;55.034;73.150;2023-07-09T12:18:36;7.57;;;3.88;;
72761;SDS011;60886;55.034;73.150;2023-07-09T12:21:38;7.67;;;3.47;;
72761;SDS011;60886;55.034;73.150;2023-07-09T12:24:43;9.63;;;4.00;;
72761;SDS011;60886;55.034;73.150;2023-07-09T12:27:47;8.52;;;3.95;;
72761;SDS011;60886;55.034;73.150;2023-07-09T12:30:49;7.83;;;3.77;;
72761;SDS011;60886;55.034;73.150;2023-07-09T12:33:53;12.10;;;5.30;;
72761;SDS011;60886;55.034;73.150;2023-07-09T12:36:55;9.50;;;4.32;;
72761;SDS011;60886;55.034;73.150;2023-07-09T12:39:59;8.02;;;4.20;;
72761;SDS011;60886;55.034;73.150;2023-07-09T12:43:07;9.07;;;4.20;;
72761;SDS011;60886;55.034;73.150;2023-07-09T12:46:12;9.32;;;4.72;;
72761;SDS011;60886;55.034;73.150;2023-07-09T12:49:21;9.17;;;4.20;;
72761;SDS011;60886;55.034;73.150;2023-07-09T12:52:24;7.80;;;4.15;;
72761;SDS011;60886;55.034;73.150;2023-07-09T12:55:38;9.99;;;4.79;;
72761;SDS011;60886;55.034;73.150;2023-07-09T12:58:41;9.00;;;4.45;;
72761;SDS011;60886;55.034;73.150;2023-07-09T13:01:46;8.70;;;4.40;;
72761;SDS011;60886;55.034;73.150;2023-07-09T13:05:02;9.23;;;4.40;;
72761;SDS011;60886;55.034;73.150;2023-07-09T13:08:11;9.47;;;4.50;;
72761;SDS011;60886;55.034;73.150;2023-07-09T13:11:18;9.13;;;4.20;;
72761;SDS011;60886;55.034;73.150;2023-07-09T13:14:53;10.32;;;4.32;;
72761;SDS011;60886;55.034;73.150;2023-07-09T13:17:59;8.43;;;4.25;;
72761;SDS011;60886;55.034;73.150;2023-07-09T13:21:03;8.87;;;4.30;;
72761;SDS011;60886;55.034;73.150;2023-07-09T13:24:22;9.98;;;4.75;;
72761;SDS011;60886;55.034;73.150;2023-07-09T13:27:25;10.23;;;4.60;;
72761;SDS011;60886;55.034;73.150;2023-07-09T13:30:34;9.36;;;4.47;;
72761;SDS011;60886;55.034;73.150;2023-07-09T13:33:36;15.15;;;5.97;;
72761;SDS011;60886;55.034;73.150;2023-07-09T13:36:38;10.65;;;4.72;;
72761;SDS011;60886;55.034;73.150;2023-07-09T13:39:40;10.90;;;4.40;;
72761;SDS011;60886;55.034;73.150;2023-07-09T13:42:42;10.20;;;4.45;;
72761;SDS011;60886;55.034;73.150;2023-07-09T13:45:44;9.10;;;4.33;;
72761;SDS011;60886;55.034;73.150;2023-07-09T13:48:49;10.02;;;4.60;;
72761;SDS011;60886;55.034;73.150;2023-07-09T13:51:51;9.77;;;4.43;;
72761;SDS011;60886;55.034;73.150;2023-07-09T13:54:55;9.85;;;4.55;;
72761;SDS011;60886;55.034;73.150;2023-07-09T13:57:56;12.65;;;4.63;;
72761;SDS011;60886;55.034;73.150;2023-07-09T14:00:58;13.40;;;5.10;;
72761;SDS011;60886;55.034;73.150;2023-07-09T14:04:05;11.90;;;6.15;;
72761;SDS011;60886;55.034;73.150;2023-07-09T14:07:14;13.73;;;6.97;;
72761;SDS011;60886;55.034;73.150;2023-07-09T14:10:34;12.71;;;7.16;;
72761;SDS011;60886;55.034;73.150;2023-07-09T14:13:36;13.05;;;6.75;;
72761;SDS011;60886;55.034;73.150;2023-07-09T14:16:38;11.23;;;6.00;;
72761;SDS011;60886;55.034;73.150;2023-07-09T14:19:39;12.18;;;6.45;;
72761;SDS011;60886;55.034;73.150;2023-07-09T14:22:41;12.45;;;7.80;;
72761;SDS011;60886;55.034;73.150;2023-07-09T14:25:44;14.70;;;8.27;;
72761;SDS011;60886;55.034;73.150;2023-07-09T14:28:46;13.00;;;7.20;;
72761;SDS011;60886;55.034;73.150;2023-07-09T14:31:49;13.10;;;7.30;;
72761;SDS011;60886;55.034;73.150;2023-07-09T14:34:51;12.97;;;7.73;;
72761;SDS011;60886;55.034;73.150;2023-07-09T14:37:53;13.47;;;7.33;;
72761;SDS011;60886;55.034;73.150;2023-07-09T14:40:55;14.43;;;7.97;;
72761;SDS011;60886;55.034;73.150;2023-07-09T14:43:58;14.98;;;8.25;;
72761;SDS011;60886;55.034;73.150;2023-07-09T14:47:00;16.33;;;8.20;;
72761;SDS011;60886;55.034;73.150;2023-07-09T14:50:03;13.93;;;8.27;;
72761;SDS011;60886;55.034;73.150;2023-07-09T14:53:08;15.93;;;7.28;;
72761;SDS011;60886;55.034;73.150;2023-07-09T14:56:14;11.98;;;6.40;;
72761;SDS011;60886;55.034;73.150;2023-07-09T14:59:16;12.85;;;6.43;;
72761;SDS011;60886;55.034;73.150;2023-07-09T15:02:22;13.43;;;6.50;;
72761;SDS011;60886;55.034;73.150;2023-07-09T15:05:34;11.52;;;5.90;;
72761;SDS011;60886;55.034;73.150;2023-07-09T15:08:36;15.60;;;7.05;;
72761;SDS011;60886;55.034;73.150;2023-07-09T15:11:37;34.57;;;22.73;;
72761;SDS011;60886;55.034;73.150;2023-07-09T15:14:39;15.05;;;7.45;;
72761;SDS011;60886;55.034;73.150;2023-07-09T15:17:40;20.70;;;10.10;;
72761;SDS011;60886;55.034;73.150;2023-07-09T15:20:51;15.57;;;8.03;;
72761;SDS011;60886;55.034;73.150;2023-07-09T15:23:59;16.40;;;7.93;;
72761;SDS011;60886;55.034;73.150;2023-07-09T15:27:00;15.33;;;8.30;;
72761;SDS011;60886;55.034;73.150;2023-07-09T15:30:13;18.90;;;9.00;;
72761;SDS011;60886;55.034;73.150;2023-07-09T15:33:24;19.83;;;11.65;;
72761;SDS011;60886;55.034;73.150;2023-07-09T15:36:27;20.13;;;11.17;;
72761;SDS011;60886;55.034;73.150;2023-07-09T15:39:28;32.55;;;17.88;;
72761;SDS011;60886;55.034;73.150;2023-07-09T15:42:29;34.63;;;18.57;;
72761;SDS011;60886;55.034;73.150;2023-07-09T15:45:37;30.48;;;15.40;;
72761;SDS011;60886;55.034;73.150;2023-07-09T15:48:42;28.63;;;17.30;;
72761;SDS011;60886;55.034;73.150;2023-07-09T15:51:45;30.17;;;17.67;;
72761;SDS011;60886;55.034;73.150;2023-07-09T15:54:47;26.98;;;17.33;;
72761;SDS011;60886;55.034;73.150;2023-07-09T15:57:50;25.53;;;16.57;;
72761;SDS011;60886;55.034;73.150;2023-07-09T16:00:53;26.13;;;16.35;;
72761;SDS011;60886;55.034;73.150;2023-07-09T16:03:57;27.70;;;17.40;;
72761;SDS011;60886;55.034;73.150;2023-07-09T16:07:01;28.73;;;18.80;;
72761;SDS011;60886;55.034;73.150;2023-07-09T16:10:02;28.70;;;18.17;;
72761;SDS011;60886;55.034;73.150;2023-07-09T16:13:05;23.50;;;15.03;;
72761;SDS011;60886;55.034;73.150;2023-07-09T16:16:19;28.92;;;17.42;;
72761;SDS011;60886;55.034;73.150;2023-07-09T16:19:23;34.30;;;20.70;;
72761;SDS011;60886;55.034;73.150;2023-07-09T16:22:26;43.53;;;26.15;;
72761;SDS011;60886;55.034;73.150;2023-07-09T16:25:34;47.40;;;29.60;;
72761;SDS011;60886;55.034;73.150;2023-07-09T16:28:36;39.33;;;25.53;;
72761;SDS011;60886;55.034;73.150;2023-07-09T16:31:38;35.55;;;22.42;;
72761;SDS011;60886;55.034;73.150;2023-07-09T16:34:39;32.92;;;20.40;;
72761;SDS011;60886;55.034;73.150;2023-07-09T16:37:42;24.50;;;14.60;;
72761;SDS011;60886;55.034;73.150;2023-07-09T16:40:45;25.30;;;12.60;;
72761;SDS011;60886;55.034;73.150;2023-07-09T16:43:47;19.67;;;11.60;;
72761;SDS011;60886;55.034;73.150;2023-07-09T16:46:49;21.30;;;11.63;;
72761;SDS011;60886;55.034;73.150;2023-07-09T16:49:53;20.67;;;11.87;;
72761;SDS011;60886;55.034;73.150;2023-07-09T16:52:54;43.90;;;26.97;;
72761;SDS011;60886;55.034;73.150;2023-07-09T16:55:56;24.90;;;14.10;;
72761;SDS011;60886;55.034;73.150;2023-07-09T16:58:57;22.55;;;13.80;;
72761;SDS011;60886;55.034;73.150;2023-07-09T17:01:59;25.23;;;16.20;;
72761;SDS011;60886;55.034;73.150;2023-07-09T17:05:01;43.07;;;27.03;;
72761;SDS011;60886;55.034;73.150;2023-07-09T17:08:08;38.35;;;26.73;;
72761;SDS011;60886;55.034;73.150;2023-07-09T17:11:10;31.73;;;22.37;;
72761;SDS011;60886;55.034;73.150;2023-07-09T17:14:16;25.30;;;17.25;;
72761;SDS011;60886;55.034;73.150;2023-07-09T17:17:19;25.00;;;16.23;;
72761;SDS011;60886;55.034;73.150;2023-07-09T17:20:22;24.50;;;14.15;;
72761;SDS011;60886;55.034;73.150;2023-07-09T17:23:28;21.48;;;13.43;;
72761;SDS011;60886;55.034;73.150;2023-07-09T17:26:31;21.27;;;10.90;;
72761;SDS011;60886;55.034;73.150;2023-07-09T17:29:32;19.33;;;9.43;;
72761;SDS011;60886;55.034;73.150;2023-07-09T17:32:34;20.55;;;8.40;;
72761;SDS011;60886;55.034;73.150;2023-07-09T17:35:36;19.86;;;8.12;;
72761;SDS011;60886;55.034;73.150;2023-07-09T17:38:39;18.48;;;8.68;;
72761;SDS011;60886;55.034;73.150;2023-07-09T17:41:41;15.77;;;8.20;;
72761;SDS011;60886;55.034;73.150;2023-07-09T17:44:42;21.63;;;10.30;;
72761;SDS011;60886;55.034;73.150;2023-07-09T17:47:45;19.65;;;10.82;;
72761;SDS011;60886;55.034;73.150;2023-07-09T17:50:46;20.37;;;10.93;;
72761;SDS011;60886;55.034;73.150;2023-07-09T17:53:48;21.83;;;11.48;;
72761;SDS011;60886;55.034;73.150;2023-07-09T17:56:50;23.50;;;11.13;;
72761;SDS011;60886;55.034;73.150;2023-07-09T17:59:56;25.17;;;11.27;;
72761;SDS011;60886;55.034;73.150;2023-07-09T18:03:05;21.38;;;11.38;;
72761;SDS011;60886;55.034;73.150;2023-07-09T18:06:12;20.63;;;11.02;;
72761;SDS011;60886;55.034;73.150;2023-07-09T18:09:16;21.80;;;10.65;;
72761;SDS011;60886;55.034;73.150;2023-07-09T18:12:22;27.23;;;11.50;;
72761;SDS011;60886;55.034;73.150;2023-07-09T18:15:34;21.19;;;10.47;;
72761;SDS011;60886;55.034;73.150;2023-07-09T18:18:37;21.95;;;10.77;;
72761;SDS011;60886;55.034;73.150;2023-07-09T18:21:38;23.73;;;10.37;;
72761;SDS011;60886;55.034;73.150;2023-07-09T18:24:40;25.33;;;10.93;;
72761;SDS011;60886;55.034;73.150;2023-07-09T18:27:44;44.42;;;25.40;;
72761;SDS011;60886;55.034;73.150;2023-07-09T18:30:47;25.57;;;10.17;;
72761;SDS011;60886;55.034;73.150;2023-07-09T18:33:49;25.17;;;10.43;;
72761;SDS011;60886;55.034;73.150;2023-07-09T18:36:50;20.52;;;9.30;;
72761;SDS011;60886;55.034;73.150;2023-07-09T18:39:51;21.45;;;9.98;;
72761;SDS011;60886;55.034;73.150;2023-07-09T18:42:54;18.20;;;9.30;;